Главная страница
METAR-TAF:

METAR-TAF

Аэропорты :

Анапа, Россия

Витязево

широта: 44-54N, долгота: 037-19E, высота над уровнем моря: м

Текущие метеонаблюдения

Эта сводка был подготовлена 33 минут назад, в 16:30 UTC
Ветер 8 Узел от восточно-северо-восточный
Температура 25°C
Влажность 69%
Давление 1012 hPa
Видимость 10 км и более
Нет облачности ниже 1500 м, и нет кучево-дождевой облачности

METAR: URKA 191630Z 07004MPS CAVOK 25/19 Q1012 R04/010070 NOSIG RMK QFE755/1006

Время: 20:03 (17:03 UTC)

Прогноз

Эта сводка был подготовлена 2 часа и 21 минут назад, в 14:42 UTC
Прогноз действительный с 19-го 15 UTC до 20-го 15 UTC
Ветер 6 Узел от северо-восточный с порывами до 16 Узел
Видимость 10 км и более
Нет облачности ниже 1500 м, и нет кучево-дождевой облачности
временами
С 20-го 03 UTC до 20-го 12 UTC
Ветер 16 Узел от восточный с порывами до 25 Узел

TAF: URKA 191442Z 1915/2015 05003G08MPS CAVOK TEMPO 2003/2012 08008G13MPS

Метеонаблюдения и прогнозы для более 4000 аэропортов (сводки METAR и TAF).

Имеющиеся станции представлены на карте желтыми и красными точками.

Чтобы увидеть название станции, наведите на нее мышь.

Затем щелкните, чтобы увидеть метеонаблюдения и метеопрогнозы.

Управление картой: чтобы увеличить масштаб, щелкните зеленые кнопки с черным крестиком; чтобы уменьшить масштаб, щелкните зеленую кнопку с тире; для просмотра соседних карт щелкайте зеленые стрелки.


METAR-TAF: